Terminal Aerodrome Forecast
Issued by NWS

Home | Current Version | Previous Version | Text Only | Print | Product List | Glossary On
Versions: 1 2 3 4 5 6 7 8 9 10 11 12 13 14 15 16 17 18 19 20 21 22 23 24 25 26 27 28 29 30 31 32 33 34 35 36 37 38
000
FTUS41 KBOX 171736
TAFHYA
TAF
KHYA 171736Z 1718/1818 01006KT P6SM BKN110
     FM172200 09005KT P6SM -RA OVC060
     FM180300 11010G19KT 5SM -RA OVC010
     FM180800 10016G27KT 3SM -RA OVC010
     FM181500 07017G31KT 1SM BR VCSH OVC010=

USA.gov is the U.S. government's official web portal to all federal, state and local government web resources and services.